Soleil Laural Canyon Historical Data
Daily Summary for February 15, 2018 Units:  English    Metric   Both
Daily Weekly Monthly Yearly Custom
  High: Low: Average:
Temperature: 45.9 °F 30.3 °F 39 °F
Dew Point: 37.2 °F 27.5 °F 33.5 °F
Humidity: 92% 67% 81%
Wind Speed: 13.4mph 0.0mph 5.4mph
Wind Gust: 16.1mph - -
Wind- - WNW
Pressure: 29.97 in 29.65 in -
Precipitation: 0.00 in    
Historical Graphs
 
 
Tabular Data for February 15, 2018
Time Temperature Dew Point Pressure Wind Wind Speed Wind Gust Humidity Rainfall Rate (Hourly) solar
00:03 37.7 °F 35.3 °F 29.68 in SSW 8.3 mph 9.2 mph 91% 0.00 in 0.0 W/m2
00:08 37.8 °F 35.4 °F 29.68 in SSW 5.9 mph 6.9 mph 91% 0.00 in 0.0 W/m2
00:13 37.9 °F 35.8 °F 29.68 in SSW 10.7 mph 10.8 mph 92% 0.00 in 0.0 W/m2
00:18 37.8 °F 35.7 °F 29.68 in SSW 8.4 mph 8.4 mph 92% 0.00 in 0.0 W/m2
00:23 37.7 °F 35.6 °F 29.68 in WSW 5.3 mph 9.2 mph 92% 0.00 in 0.0 W/m2
00:28 37.7 °F 35.6 °F 29.68 in SW 6.3 mph 6.9 mph 92% 0.00 in 0.0 W/m2
00:33 37.7 °F 35.6 °F 29.68 in SW 6.7 mph 6.9 mph 92% 0.00 in 0.0 W/m2
00:38 37.9 °F 35.8 °F 29.67 in SSW 7.3 mph 7.3 mph 92% 0.00 in 0.0 W/m2
00:43 38.0 °F 35.9 °F 29.68 in SSW 5.3 mph 6.9 mph 92% 0.00 in 0.0 W/m2
00:49 38.0 °F 35.9 °F 29.67 in North 7.0 mph 8.1 mph 92% 0.00 in 0.0 W/m2
00:54 38.4 °F 36.3 °F 29.67 in SSW 6.3 mph 6.3 mph 92% 0.00 in 0.0 W/m2
00:59 38.6 °F 36.5 °F 29.67 in SSW 8.5 mph 9.2 mph 92% 0.00 in 0.0 W/m2
01:04 38.8 °F 36.7 °F 29.68 in SW 7.2 mph 8.1 mph 92% 0.00 in 0.0 W/m2
01:09 39.1 °F 37.0 °F 29.67 in WSW 9.5 mph 12.7 mph 92% 0.00 in 0.0 W/m2
01:14 39.1 °F 37.0 °F 29.67 in WSW 8.6 mph 9.6 mph 92% 0.00 in 0.0 W/m2
01:19 39.1 °F 37.0 °F 29.67 in WSW 7.5 mph 8.1 mph 92% 0.00 in 0.0 W/m2
01:24 39.3 °F 37.2 °F 29.67 in SW 10.3 mph 12.7 mph 92% 0.00 in 0.0 W/m2
01:29 39.1 °F 36.7 °F 29.67 in SW 8.7 mph 9.2 mph 91% 0.00 in 0.0 W/m2
01:34 39.3 °F 37.2 °F 29.67 in SSW 11.0 mph 11.5 mph 92% 0.00 in 0.0 W/m2
01:39 39.5 °F 37.1 °F 29.67 in SSW 11.4 mph 11.4 mph 91% 0.00 in 0.0 W/m2
01:44 39.6 °F 37.2 °F 29.67 in SSW 10.3 mph 12.0 mph 91% 0.00 in 0.0 W/m2
01:49 39.6 °F 37.2 °F 29.68 in SW 8.2 mph 9.2 mph 91% 0.00 in 0.0 W/m2
01:54 39.6 °F 37.2 °F 29.68 in SW 5.4 mph 6.9 mph 91% 0.00 in 0.0 W/m2
02:00 39.5 °F 37.1 °F 29.68 in WSW 6.7 mph 6.7 mph 91% 0.00 in 0.0 W/m2
02:05 39.5 °F 37.1 °F 29.68 in West 6.7 mph 6.9 mph 91% 0.00 in 0.0 W/m2
02:10 39.5 °F 37.1 °F 29.68 in WNW 6.5 mph 10.8 mph 91% 0.00 in 0.0 W/m2
02:15 39.6 °F 37.2 °F 29.68 in WSW 6.8 mph 8.1 mph 91% 0.00 in 0.0 W/m2
02:20 39.5 °F 37.1 °F 29.68 in WSW 7.2 mph 11.5 mph 91% 0.00 in 0.0 W/m2
02:28 39.5 °F 37.1 °F 29.68 in SSW 7.4 mph 9.2 mph 91% 0.00 in 0.0 W/m2
02:33 39.6 °F 36.9 °F 29.68 in WSW 7.2 mph 9.2 mph 90% 0.00 in 0.0 W/m2
02:38 39.6 °F 36.9 °F 29.69 in WSW 8.4 mph 8.4 mph 90% 0.00 in 0.0 W/m2
02:43 39.6 °F 36.9 °F 29.68 in WSW 4.9 mph 6.0 mph 90% 0.00 in 0.0 W/m2
02:48 39.5 °F 36.8 °F 29.68 in WSW 3.9 mph 4.8 mph 90% 0.00 in 0.0 W/m2
02:53 39.4 °F 36.7 °F 29.68 in NW 3.1 mph 5.8 mph 90% 0.00 in 0.0 W/m2
02:58 39.2 °F 36.5 °F 29.68 in SW 4.7 mph 8.1 mph 90% 0.00 in 0.0 W/m2
03:04 39.3 °F 36.6 °F 29.68 in West 4.5 mph 16.1 mph 90% 0.00 in 0.0 W/m2
03:09 39.2 °F 36.5 °F 29.67 in WSW 6.9 mph 8.1 mph 90% 0.00 in 0.0 W/m2
03:14 39.2 °F 36.5 °F 29.68 in South 4.7 mph 8.1 mph 90% 0.00 in 0.0 W/m2
03:19 39.2 °F 36.5 °F 29.67 in SW 6.7 mph 7.2 mph 90% 0.00 in 0.0 W/m2
03:24 39.2 °F 36.5 °F 29.67 in SW 6.5 mph 10.4 mph 90% 0.00 in 0.0 W/m2
03:29 39.1 °F 36.4 °F 29.67 in WNW 4.8 mph 6.0 mph 90% 0.00 in 0.0 W/m2
03:34 39.1 °F 36.4 °F 29.67 in West 1.5 mph 4.6 mph 90% 0.00 in 0.0 W/m2
03:39 39.0 °F 36.3 °F 29.67 in WSW 4.0 mph 4.8 mph 90% 0.00 in 0.0 W/m2
03:44 38.9 °F 36.2 °F 29.67 in WSW 3.5 mph 4.6 mph 90% 0.00 in 0.0 W/m2
03:49 38.9 °F 36.2 °F 29.68 in West 3.5 mph 6.0 mph 90% 0.00 in 0.0 W/m2
03:55 38.8 °F 36.1 °F 29.68 in WSW 2.7 mph 3.5 mph 90% 0.00 in 0.0 W/m2
04:00 38.7 °F 36.0 °F 29.68 in WSW 5.1 mph 5.1 mph 90% 0.00 in 0.0 W/m2
04:05 38.4 °F 35.7 °F 29.67 in SSW 3.6 mph 5.8 mph 90% 0.00 in 0.0 W/m2
04:10 38.2 °F 35.5 °F 29.66 in SSW 4.9 mph 6.0 mph 90% 0.00 in 0.0 W/m2
04:15 38.5 °F 35.8 °F 29.67 in SSW 10.1 mph 12.7 mph 90% 0.00 in 0.0 W/m2
04:20 38.7 °F 36.0 °F 29.67 in SW 9.5 mph 11.5 mph 90% 0.00 in 0.0 W/m2
04:25 38.3 °F 35.6 °F 29.67 in SW 8.1 mph 8.1 mph 90% 0.00 in 0.0 W/m2
04:30 38.3 °F 35.6 °F 29.67 in SW 5.7 mph 6.9 mph 90% 0.00 in 0.0 W/m2
04:35 38.2 °F 35.5 °F 29.67 in SW 4.2 mph 4.8 mph 90% 0.00 in 0.0 W/m2
04:40 38.2 °F 35.5 °F 29.66 in West 3.3 mph 5.8 mph 90% 0.00 in 0.0 W/m2
04:45 38.2 °F 35.5 °F 29.66 in West 4.0 mph 5.8 mph 90% 0.00 in 0.0 W/m2
04:51 38.2 °F 35.5 °F 29.66 in WSW 5.3 mph 5.8 mph 90% 0.00 in 0.0 W/m2
04:56 38.0 °F 35.3 °F 29.67 in WSW 3.4 mph 4.6 mph 90% 0.00 in 0.0 W/m2
05:01 37.9 °F 35.2 °F 29.66 in WSW 5.3 mph 5.8 mph 90% 0.00 in 0.0 W/m2
05:06 37.8 °F 35.1 °F 29.65 in West 2.5 mph 4.6 mph 90% 0.00 in 0.0 W/m2
05:11 37.7 °F 35.0 °F 29.66 in Calm   1.2 mph 90% 0.00 in 0.0 W/m2
05:16 37.6 °F 34.9 °F 29.66 in West 1.4 mph 2.3 mph 90% 0.00 in 0.0 W/m2
05:21 37.4 °F 34.7 °F 29.66 in West 1.4 mph 2.4 mph 90% 0.00 in 0.0 W/m2
05:26 37.4 °F 34.7 °F 29.66 in Calm   1.2 mph 90% 0.00 in 0.0 W/m2
05:31 37.4 °F 34.7 °F 29.66 in West 1.7 mph 2.4 mph 90% 0.00 in 0.0 W/m2
05:36 37.4 °F 34.7 °F 29.66 in West 1.9 mph 2.4 mph 90% 0.00 in 0.0 W/m2
05:41 37.4 °F 34.7 °F 29.66 in West 1.1 mph 2.4 mph 90% 0.00 in 0.0 W/m2
05:46 37.4 °F 34.7 °F 29.67 in West 2.8 mph 3.5 mph 90% 0.00 in 0.0 W/m2
05:51 37.5 °F 34.8 °F 29.67 in WSW 3.5 mph 4.6 mph 90% 0.00 in 0.0 W/m2
05:57 37.7 °F 35.0 °F 29.67 in SW 3.7 mph 5.8 mph 90% 0.00 in 0.0 W/m2
06:02 37.5 °F 34.8 °F 29.68 in SW 4.0 mph 4.6 mph 90% 0.00 in 0.0 W/m2
06:07 37.3 °F 34.6 °F 29.68 in SW 3.0 mph 5.0 mph 90% 0.00 in 0.0 W/m2
06:12 36.9 °F 34.2 °F 29.67 in South 4.5 mph 4.8 mph 90% 0.00 in 0.0 W/m2
06:17 36.9 °F 34.2 °F 29.68 in SSW 6.7 mph 6.9 mph 90% 0.00 in 0.0 W/m2
06:22 37.1 °F 34.4 °F 29.68 in SSW 7.3 mph 7.3 mph 90% 0.00 in 0.0 W/m2
06:27 37.1 °F 34.4 °F 29.68 in SW 5.2 mph 5.2 mph 90% 0.00 in 0.0 W/m2
06:32 37.0 °F 34.3 °F 29.67 in SW 3.5 mph 3.6 mph 90% 0.00 in 0.0 W/m2
06:37 37.0 °F 34.3 °F 29.68 in SW 4.5 mph 4.8 mph 90% 0.00 in 0.0 W/m2
06:42 37.0 °F 34.3 °F 29.68 in SW 4.4 mph 4.6 mph 90% 0.00 in 0.0 W/m2
06:47 37.0 °F 34.3 °F 29.68 in SW 3.6 mph 5.8 mph 90% 0.00 in 0.0 W/m2
06:56 36.9 °F 34.2 °F 29.68 in SW 2.5 mph 2.5 mph 90% 0.00 in 0.0 W/m2
07:01 36.9 °F 34.2 °F 29.68 in Calm   1.2 mph 90% 0.00 in 0.0 W/m2
07:06 36.9 °F 34.2 °F 29.69 in SW 0.8 mph 2.3 mph 90% 0.00 in 0.0 W/m2
07:11 36.8 °F 34.1 °F 29.69 in SW 1.8 mph 2.3 mph 90% 0.00 in 0.0 W/m2
07:16 36.7 °F 34.0 °F 29.69 in WSW 4.5 mph 4.8 mph 90% 0.00 in 0.0 W/m2
07:21 36.9 °F 34.2 °F 29.69 in WSW 3.4 mph 4.6 mph 90% 0.00 in 0.0 W/m2
07:26 37.2 °F 34.5 °F 29.70 in West 4.4 mph 4.8 mph 90% 0.00 in 5.0 W/m2
07:31 37.3 °F 34.4 °F 29.70 in WNW 4.0 mph 4.8 mph 89% 0.00 in 7.0 W/m2
07:36 37.4 °F 34.5 °F 29.70 in WNW 1.4 mph 2.4 mph 89% 0.00 in 11.0 W/m2
07:42 37.4 °F 34.5 °F 29.69 in WNW 2.0 mph 5.0 mph 89% 0.00 in 12.0 W/m2
07:47 37.3 °F 34.4 °F 29.68 in NNW 1.3 mph 1.3 mph 89% 0.00 in 14.0 W/m2
07:52 37.2 °F 34.3 °F 29.68 in NNW 1.2 mph 2.3 mph 89% 0.00 in 16.0 W/m2
07:57 37.2 °F 34.3 °F 29.68 in NNW 3.4 mph 4.6 mph 89% 0.00 in 19.0 W/m2
08:02 37.2 °F 34.3 °F 29.69 in NNW 1.3 mph 2.3 mph 89% 0.00 in 19.0 W/m2
08:07 37.2 °F 34.3 °F 29.69 in NNW 2.5 mph 2.5 mph 89% 0.00 in 18.0 W/m2
08:12 37.3 °F 34.4 °F 29.70 in NNW 2.2 mph 2.4 mph 89% 0.00 in 21.0 W/m2
08:17 37.3 °F 34.4 °F 29.70 in NNW 1.2 mph 2.3 mph 89% 0.00 in 35.0 W/m2
08:22 37.4 °F 34.2 °F 29.70 in West 1.2 mph 2.3 mph 88% 0.00 in 56.0 W/m2
08:27 37.6 °F 34.4 °F 29.71 in WSW 1.7 mph 3.5 mph 88% 0.00 in 65.0 W/m2
08:32 37.7 °F 34.5 °F 29.70 in SW 2.3 mph 3.5 mph 88% 0.00 in 62.0 W/m2
08:37 37.7 °F 34.5 °F 29.70 in SSW 2.2 mph 3.5 mph 88% 0.00 in 76.0 W/m2
08:43 37.8 °F 34.3 °F 29.70 in SSW 0.8 mph 3.5 mph 87% 0.00 in 74.0 W/m2
08:48 37.9 °F 34.7 °F 29.70 in SSW 1.7 mph 2.4 mph 88% 0.00 in 95.0 W/m2
08:53 38.0 °F 34.5 °F 29.69 in SSW 2.0 mph 2.3 mph 87% 0.00 in 93.0 W/m2
08:58 38.1 °F 34.6 °F 29.70 in SSW 1.5 mph 2.3 mph 87% 0.00 in 113.0 W/m2
09:03 38.3 °F 34.8 °F 29.70 in SSW 2.0 mph 2.3 mph 87% 0.00 in 104.0 W/m2
09:08 38.5 °F 35.0 °F 29.70 in SSW 2.1 mph 2.4 mph 87% 0.00 in 148.0 W/m2
09:13 38.9 °F 35.1 °F 29.70 in SSW 1.1 mph 1.2 mph 86% 0.00 in 167.0 W/m2
09:18 39.1 °F 35.3 °F 29.70 in SSW 2.8 mph 3.5 mph 86% 0.00 in 128.0 W/m2
09:23 39.2 °F 35.1 °F 29.70 in West 1.8 mph 4.6 mph 85% 0.00 in 155.0 W/m2
09:28 39.7 °F 35.6 °F 29.70 in West 1.0 mph 2.4 mph 85% 0.00 in 146.0 W/m2
09:33 39.8 °F 35.4 °F 29.70 in West 1.8 mph 4.6 mph 84% 0.00 in 283.0 W/m2
09:38 40.6 °F 36.1 °F 29.70 in West 1.1 mph 2.3 mph 84% 0.00 in 241.0 W/m2
09:43 40.7 °F 35.9 °F 29.70 in West 2.4 mph 4.6 mph 83% 0.00 in 155.0 W/m2
09:48 40.8 °F 35.7 °F 29.70 in West 1.5 mph 2.3 mph 82% 0.00 in 125.0 W/m2
09:53 40.9 °F 35.5 °F 29.70 in West 2.2 mph 2.4 mph 81% 0.00 in 135.0 W/m2
09:58 40.7 °F 35.3 °F 29.70 in West 3.3 mph 4.8 mph 81% 0.00 in 134.0 W/m2
10:03 40.5 °F 35.1 °F 29.70 in West 2.1 mph 2.3 mph 81% 0.00 in 118.0 W/m2
10:08 40.7 °F 35.3 °F 29.69 in West 0.9 mph 1.2 mph 81% 0.00 in 227.0 W/m2
10:14 40.9 °F 35.5 °F 29.69 in West 1.5 mph 2.4 mph 81% 0.00 in 308.0 W/m2
10:19 41.2 °F 35.5 °F 29.69 in Calm     80% 0.00 in 195.0 W/m2
10:24 41.8 °F 35.8 °F 29.69 in West 0.7 mph 1.2 mph 79% 0.00 in 462.0 W/m2
10:29 42.8 °F 36.1 °F 29.69 in West 1.2 mph 5.8 mph 77% 0.00 in 526.0 W/m2
10:34 43.8 °F 36.4 °F 29.69 in WSW 1.6 mph 5.8 mph 75% 0.00 in 554.0 W/m2
10:39 44.6 °F 36.5 °F 29.69 in NW 1.3 mph 2.3 mph 73% 0.00 in 483.0 W/m2
10:44 44.7 °F 35.9 °F 29.70 in WNW 2.9 mph 6.0 mph 71% 0.00 in 487.0 W/m2
10:49 45.1 °F 36.3 °F 29.69 in WNW 0.7 mph 1.2 mph 71% 0.00 in 381.0 W/m2
10:54 45.2 °F 36.0 °F 29.69 in WNW 5.7 mph 5.7 mph 70% 0.00 in 473.0 W/m2
10:59 45.7 °F 36.1 °F 29.68 in WNW 2.9 mph 4.6 mph 69% 0.00 in 404.0 W/m2
11:04 45.7 °F 35.7 °F 29.68 in WNW 2.1 mph 2.4 mph 68% 0.00 in 308.0 W/m2
11:09 45.9 °F 36.3 °F 29.68 in NNW 1.3 mph 2.3 mph 69% 0.00 in 420.0 W/m2
11:14 45.8 °F 35.8 °F 29.69 in West 5.1 mph 6.0 mph 68% 0.00 in 387.0 W/m2
11:19 45.6 °F 35.3 °F 29.68 in WNW 8.2 mph 8.2 mph 67% 0.00 in 376.0 W/m2
11:24 45.3 °F 35.0 °F 29.69 in WNW 10.5 mph 10.5 mph 67% 0.00 in 466.0 W/m2
11:29 45.4 °F 35.1 °F 29.70 in West 7.0 mph 8.4 mph 67% 0.00 in 404.0 W/m2
11:35 45.3 °F 35.4 °F 29.70 in WNW 8.0 mph 8.4 mph 68% 0.00 in 366.0 W/m2
11:40 45.3 °F 35.4 °F 29.70 in West 4.8 mph 8.1 mph 68% 0.00 in 388.0 W/m2
11:45 45.3 °F 35.0 °F 29.71 in WNW 7.3 mph 7.3 mph 67% 0.00 in 371.0 W/m2
11:50 45.4 °F 35.5 °F 29.71 in WNW 6.7 mph 6.9 mph 68% 0.00 in 359.0 W/m2
11:55 45.3 °F 35.4 °F 29.71 in NW 6.0 mph 6.9 mph 68% 0.00 in 403.0 W/m2
12:00 45.3 °F 35.4 °F 29.71 in WNW 7.2 mph 7.2 mph 68% 0.00 in 434.0 W/m2
12:05 45.3 °F 35.4 °F 29.71 in NW 6.8 mph 8.1 mph 68% 0.00 in 367.0 W/m2
12:10 45.2 °F 35.3 °F 29.71 in NNW 7.2 mph 9.6 mph 68% 0.00 in 376.0 W/m2
12:15 45.2 °F 35.3 °F 29.72 in WNW 7.8 mph 10.4 mph 68% 0.00 in 392.0 W/m2
12:20 45.4 °F 35.8 °F 29.72 in NW 5.5 mph 9.2 mph 69% 0.00 in 411.0 W/m2
12:25 45.4 °F 35.5 °F 29.72 in West 9.0 mph 9.2 mph 68% 0.00 in 367.0 W/m2
12:30 45.2 °F 35.3 °F 29.71 in NW 9.6 mph 11.5 mph 68% 0.00 in 366.0 W/m2
12:36 45.4 °F 35.5 °F 29.72 in NW 7.4 mph 12.7 mph 68% 0.00 in 380.0 W/m2
12:41 45.4 °F 35.5 °F 29.72 in NW 7.0 mph 11.5 mph 68% 0.00 in 323.0 W/m2
12:46 45.4 °F 35.5 °F 29.71 in WNW 6.6 mph 9.2 mph 68% 0.00 in 330.0 W/m2
12:51 45.3 °F 35.4 °F 29.71 in West 6.8 mph 7.2 mph 68% 0.00 in 309.0 W/m2
12:56 45.3 °F 35.4 °F 29.70 in West 7.3 mph 8.4 mph 68% 0.00 in 306.0 W/m2
13:01 45.1 °F 35.2 °F 29.71 in NNW 8.8 mph 10.4 mph 68% 0.00 in 313.0 W/m2
13:06 44.8 °F 34.5 °F 29.70 in NNW 12.1 mph 16.1 mph 67% 0.00 in 315.0 W/m2
13:11 44.6 °F 34.7 °F 29.70 in WNW 9.4 mph 9.4 mph 68% 0.00 in 309.0 W/m2
13:16 44.4 °F 34.5 °F 29.70 in NW 13.4 mph 13.4 mph 68% 0.00 in 301.0 W/m2
13:21 44.3 °F 34.4 °F 29.71 in NW 7.8 mph 9.2 mph 68% 0.00 in 299.0 W/m2
13:26 44.2 °F 34.7 °F 29.70 in NNW 9.3 mph 10.4 mph 69% 0.00 in 309.0 W/m2
13:31 44.2 °F 34.7 °F 29.70 in NNW 6.4 mph 8.4 mph 69% 0.00 in 362.0 W/m2
13:36 44.2 °F 34.7 °F 29.70 in West 8.5 mph 8.5 mph 69% 0.00 in 325.0 W/m2
13:42 44.4 °F 34.9 °F 29.71 in WNW 9.0 mph 9.0 mph 69% 0.00 in 360.0 W/m2
13:47 44.4 °F 34.9 °F 29.71 in NW 9.0 mph 13.0 mph 69% 0.00 in 336.0 W/m2
13:52 44.4 °F 34.9 °F 29.70 in NW 7.0 mph 8.0 mph 69% 0.00 in 301.0 W/m2
13:57 44.5 °F 34.9 °F 29.70 in NW 8.0 mph 11.0 mph 69% 0.00 in 292.0 W/m2
14:02 44.3 °F 34.4 °F 29.70 in NW 7.8 mph 10.4 mph 68% 0.00 in 279.0 W/m2
14:07 44.2 °F 34.7 °F 29.70 in NW 7.5 mph 7.5 mph 69% 0.00 in 292.0 W/m2
14:12 44.2 °F 34.7 °F 29.70 in West 7.7 mph 7.7 mph 69% 0.00 in 279.0 W/m2
14:17 44.1 °F 34.6 °F 29.70 in West 8.0 mph 9.6 mph 69% 0.00 in 244.0 W/m2
14:22 44.0 °F 34.1 °F 29.70 in NW 10.5 mph 11.5 mph 68% 0.00 in 250.0 W/m2
14:27 43.8 °F 34.3 °F 29.71 in WNW 6.4 mph 12.7 mph 69% 0.00 in 250.0 W/m2
14:32 43.8 °F 34.3 °F 29.71 in WNW 8.5 mph 9.6 mph 69% 0.00 in 264.0 W/m2
14:37 43.7 °F 34.2 °F 29.71 in NW 10.2 mph 10.4 mph 69% 0.00 in 264.0 W/m2
14:42 43.6 °F 34.1 °F 29.72 in WNW 7.0 mph 8.4 mph 69% 0.00 in 244.0 W/m2
14:47 43.6 °F 34.1 °F 29.72 in WNW 5.8 mph 6.0 mph 69% 0.00 in 239.0 W/m2
14:53 43.7 °F 34.2 °F 29.72 in NNW 8.5 mph 10.4 mph 69% 0.00 in 221.0 W/m2
14:58 43.7 °F 34.2 °F 29.72 in WNW 8.3 mph 10.4 mph 69% 0.00 in 195.0 W/m2
15:03 43.6 °F 34.1 °F 29.72 in NW 4.4 mph 5.8 mph 69% 0.00 in 190.0 W/m2
15:08 43.5 °F 34.4 °F 29.72 in NNW 6.3 mph 6.9 mph 70% 0.00 in 179.0 W/m2
15:13 43.4 °F 34.3 °F 29.72 in NW 6.2 mph 8.1 mph 70% 0.00 in 181.0 W/m2
15:18 43.3 °F 34.2 °F 29.73 in WNW 8.3 mph 10.4 mph 70% 0.00 in 185.0 W/m2
15:23 43.2 °F 34.1 °F 29.73 in WNW 7.4 mph 8.4 mph 70% 0.00 in 171.0 W/m2
15:28 43.2 °F 34.1 °F 29.73 in NW 4.7 mph 6.9 mph 70% 0.00 in 167.0 W/m2
15:33 43.1 °F 34.0 °F 29.73 in NW 7.5 mph 9.2 mph 70% 0.00 in 146.0 W/m2
15:38 43.1 °F 34.0 °F 29.73 in NNW 5.4 mph 10.4 mph 70% 0.00 in 130.0 W/m2
15:44 43.0 °F 33.9 °F 29.73 in WNW 7.1 mph 8.4 mph 70% 0.00 in 118.0 W/m2
15:49 42.9 °F 33.8 °F 29.73 in NW 6.1 mph 6.1 mph 70% 0.00 in 109.0 W/m2
15:54 42.8 °F 33.7 °F 29.73 in NW 7.6 mph 9.6 mph 70% 0.00 in 109.0 W/m2
15:59 42.6 °F 33.5 °F 29.74 in NW 10.0 mph 12.7 mph 70% 0.00 in 102.0 W/m2
16:04 42.3 °F 33.6 °F 29.74 in WNW 7.1 mph 9.2 mph 71% 0.00 in 88.0 W/m2
16:09 42.1 °F 33.0 °F 29.75 in WNW 8.5 mph 12.7 mph 70% 0.00 in 77.0 W/m2
16:14 41.8 °F 33.1 °F 29.75 in NNW 8.1 mph 9.2 mph 71% 0.00 in 70.0 W/m2
16:19 41.5 °F 32.8 °F 29.75 in WNW 8.3 mph 8.3 mph 71% 0.00 in 63.0 W/m2
16:24 41.3 °F 33.0 °F 29.75 in NW 9.6 mph 16.1 mph 72% 0.00 in 58.0 W/m2
16:30 41.1 °F 32.8 °F 29.76 in NW 9.1 mph 9.1 mph 72% 0.00 in 56.0 W/m2
16:34 40.9 °F 32.9 °F 29.76 in NW 7.3 mph 8.1 mph 73% 0.00 in 51.0 W/m2
16:39 40.7 °F 32.7 °F 29.76 in NNW 6.0 mph 8.4 mph 73% 0.00 in 42.0 W/m2
16:45 40.6 °F 32.6 °F 29.76 in WNW 7.2 mph 8.1 mph 73% 0.00 in 37.0 W/m2
16:50 40.4 °F 32.4 °F 29.77 in NW 6.5 mph 9.6 mph 73% 0.00 in 32.0 W/m2
16:55 40.3 °F 32.3 °F 29.77 in NW 6.5 mph 9.2 mph 73% 0.00 in 26.0 W/m2
17:00 40.1 °F 32.5 °F 29.78 in WNW 5.3 mph 5.8 mph 74% 0.00 in 21.0 W/m2
17:05 40.0 °F 32.4 °F 29.78 in NW 6.5 mph 6.9 mph 74% 0.00 in 16.0 W/m2
17:10 39.8 °F 32.2 °F 29.79 in WNW 6.9 mph 9.2 mph 74% 0.00 in 12.0 W/m2
17:15 39.7 °F 32.1 °F 29.80 in NNW 9.0 mph 10.4 mph 74% 0.00 in 7.0 W/m2
18:17 39.7 °F 32.4 °F 29.80 in NNW 6.0 mph 11.0 mph 75% 0.00 in 7.0 W/m2
18:22 38.4 °F 30.5 °F 29.83 in NW 1.5 mph 2.3 mph 73% 0.00 in 0.0 W/m2
18:27 38.1 °F 30.6 °F 29.83 in NW 1.0 mph 2.0 mph 74% 0.00 in 0.0 W/m2
18:32 37.9 °F 30.4 °F 29.83 in NW 0.8 mph 1.2 mph 74% 0.00 in 0.0 W/m2
18:37 37.8 °F 30.2 °F 29.83 in Calm   1.0 mph 74% 0.00 in 0.0 W/m2
18:42 37.6 °F 30.4 °F 29.83 in NW 1.0 mph 2.0 mph 75% 0.00 in 0.0 W/m2
18:47 37.3 °F 30.7 °F 29.83 in NW 2.5 mph 2.5 mph 77% 0.00 in 0.0 W/m2
18:52 37.1 °F 30.5 °F 29.83 in NW 2.0 mph 5.0 mph 77% 0.00 in 0.0 W/m2
18:57 36.8 °F 30.6 °F 29.83 in NW 1.0 mph 2.0 mph 78% 0.00 in 0.0 W/m2
19:02 36.6 °F 30.4 °F 29.84 in WNW 1.4 mph 2.4 mph 78% 0.00 in 0.0 W/m2
19:07 36.4 °F 30.2 °F 29.84 in WNW 0.1 mph 2.3 mph 78% 0.00 in 0.0 W/m2
19:12 36.2 °F 30.0 °F 29.84 in WNW 0.9 mph 1.2 mph 78% 0.00 in 0.0 W/m2
19:17 36.0 °F 30.1 °F 29.84 in WNW 1.4 mph 2.3 mph 79% 0.00 in 0.0 W/m2
19:22 35.8 °F 29.9 °F 29.84 in WNW 1.7 mph 2.3 mph 79% 0.00 in 0.0 W/m2
19:27 35.7 °F 29.8 °F 29.85 in WNW 2.2 mph 2.3 mph 79% 0.00 in 0.0 W/m2
19:32 35.6 °F 29.7 °F 29.85 in WNW 2.9 mph 4.6 mph 79% 0.00 in 0.0 W/m2
19:37 35.6 °F 29.7 °F 29.85 in WNW 1.7 mph 2.4 mph 79% 0.00 in 0.0 W/m2
19:42 35.5 °F 29.6 °F 29.85 in WNW 3.5 mph 4.8 mph 79% 0.00 in 0.0 W/m2
19:47 35.5 °F 29.3 °F 29.85 in NW 4.6 mph 5.8 mph 78% 0.00 in 0.0 W/m2
19:52 35.4 °F 29.2 °F 29.86 in NW 3.1 mph 5.8 mph 78% 0.00 in 0.0 W/m2
19:57 35.3 °F 29.1 °F 29.86 in NW 4.6 mph 6.9 mph 78% 0.00 in 0.0 W/m2
20:03 35.3 °F 29.1 °F 29.86 in NNW 5.3 mph 6.0 mph 78% 0.00 in 0.0 W/m2
20:08 35.2 °F 29.0 °F 29.86 in NNW 5.4 mph 8.1 mph 78% 0.00 in 0.0 W/m2
20:13 35.1 °F 28.9 °F 29.87 in NNW 8.0 mph 9.2 mph 78% 0.00 in 0.0 W/m2
20:18 35.0 °F 29.1 °F 29.87 in NW 7.4 mph 7.4 mph 79% 0.00 in 0.0 W/m2
20:23 34.9 °F 28.7 °F 29.88 in WNW 8.2 mph 12.7 mph 78% 0.00 in 0.0 W/m2
20:28 34.9 °F 28.7 °F 29.88 in NW 7.3 mph 10.8 mph 78% 0.00 in 0.0 W/m2
20:33 34.7 °F 28.5 °F 29.88 in NNW 3.3 mph 9.2 mph 78% 0.00 in 0.0 W/m2
20:38 34.6 °F 28.4 °F 29.88 in NNW 7.5 mph 8.1 mph 78% 0.00 in 0.0 W/m2
20:43 34.4 °F 28.2 °F 29.88 in NW 6.7 mph 6.7 mph 78% 0.00 in 0.0 W/m2
20:49 34.3 °F 28.2 °F 29.89 in NW 8.6 mph 9.2 mph 78% 0.00 in 0.0 W/m2
20:54 34.2 °F 28.1 °F 29.89 in North 8.3 mph 8.4 mph 78% 0.00 in 0.0 W/m2
20:59 34.2 °F 28.1 °F 29.90 in North 8.6 mph 10.8 mph 78% 0.00 in 0.0 W/m2
21:04 34.1 °F 28.0 °F 29.91 in NW 8.0 mph 9.2 mph 78% 0.00 in 0.0 W/m2
21:09 34.0 °F 27.9 °F 29.91 in NNW 8.6 mph 8.6 mph 78% 0.00 in 0.0 W/m2
21:14 34.0 °F 27.9 °F 29.92 in NW 6.5 mph 9.2 mph 78% 0.00 in 0.0 W/m2
21:19 34.0 °F 27.9 °F 29.92 in North 8.7 mph 9.2 mph 78% 0.00 in 0.0 W/m2
21:24 34.0 °F 27.9 °F 29.93 in NW 9.3 mph 12.7 mph 78% 0.00 in 0.0 W/m2
21:29 33.9 °F 27.8 °F 29.93 in NW 5.8 mph 10.4 mph 78% 0.00 in 0.0 W/m2
21:35 33.9 °F 27.8 °F 29.93 in NNW 8.2 mph 12.7 mph 78% 0.00 in 0.0 W/m2
21:40 33.8 °F 27.7 °F 29.93 in NW 8.8 mph 13.2 mph 78% 0.00 in 0.0 W/m2
21:45 33.8 °F 27.7 °F 29.93 in NNW 8.5 mph 9.2 mph 78% 0.00 in 0.0 W/m2
21:50 33.7 °F 27.9 °F 29.93 in NNW 4.6 mph 6.9 mph 79% 0.00 in 0.0 W/m2
21:55 33.6 °F 27.8 °F 29.93 in WNW 6.9 mph 9.6 mph 79% 0.00 in 0.0 W/m2
22:00 33.6 °F 27.8 °F 29.93 in NNW 9.4 mph 10.4 mph 79% 0.00 in 0.0 W/m2
22:05 33.5 °F 27.7 °F 29.93 in NW 11.0 mph 11.0 mph 79% 0.00 in 0.0 W/m2
22:10 33.4 °F 27.6 °F 29.94 in North 6.8 mph 10.4 mph 79% 0.00 in 0.0 W/m2
22:15 33.4 °F 27.6 °F 29.95 in NNW 7.4 mph 11.5 mph 79% 0.00 in 0.0 W/m2
22:20 33.3 °F 27.5 °F 29.95 in NNW 7.6 mph 16.1 mph 79% 0.00 in 0.0 W/m2
22:25 33.3 °F 27.8 °F 29.95 in NNW 8.3 mph 8.3 mph 80% 0.00 in 0.0 W/m2
22:31 33.2 °F 27.7 °F 29.96 in NW 9.2 mph 12.0 mph 80% 0.00 in 0.0 W/m2
22:36 33.2 °F 27.7 °F 29.95 in NNW 5.7 mph 6.9 mph 80% 0.00 in 0.0 W/m2
22:41 33.1 °F 27.6 °F 29.96 in NNW 6.9 mph 9.2 mph 80% 0.00 in 0.0 W/m2
22:46 33.1 °F 27.6 °F 29.95 in NNE 8.5 mph 11.5 mph 80% 0.00 in 0.0 W/m2
22:51 33.1 °F 27.6 °F 29.96 in North 6.8 mph 8.1 mph 80% 0.00 in 0.0 W/m2
22:56 33.0 °F 27.8 °F 29.96 in NW 8.2 mph 9.2 mph 81% 0.00 in 0.0 W/m2
23:01 32.8 °F 27.9 °F 29.96 in NW 5.1 mph 6.0 mph 82% 0.00 in 0.0 W/m2
23:06 32.4 °F 28.1 °F 29.96 in North 7.7 mph 12.0 mph 84% 0.00 in 0.0 W/m2
23:11 32.1 °F 28.1 °F 29.96 in NNW 8.9 mph 9.2 mph 85% 0.00 in 0.0 W/m2
23:16 31.8 °F 28.4 °F 29.97 in NW 6.8 mph 6.9 mph 87% 0.00 in 0.0 W/m2
23:21 31.5 °F 28.4 °F 29.97 in NNW 4.4 mph 10.4 mph 88% 0.00 in 0.0 W/m2
23:26 31.5 °F 28.4 °F 29.97 in NNW 2.9 mph 2.9 mph 88% 0.00 in 0.0 W/m2
23:31 31.5 °F 28.4 °F 29.97 in NNW 2.9 mph 2.9 mph 88% 0.00 in 0.0 W/m2
23:36 31.5 °F 28.4 °F 29.97 in Calm     88% 0.00 in 0.0 W/m2
23:41 31.5 °F 28.4 °F 29.97 in Calm     88% 0.00 in 0.0 W/m2
23:47 31.5 °F 28.4 °F 29.97 in Calm     88% 0.00 in 0.0 W/m2
23:52 30.5 °F 28.5 °F 29.97 in NW 6.8 mph 10.4 mph 92% 0.00 in 0.0 W/m2
23:57 30.3 °F 28.3 °F 29.97 in NNW 8.0 mph 12.0 mph 92% 0.00 in 0.0 W/m2
Soleil - Laurel Canyon
Compliments of Weather Underground - 3 mb